sensor_id;sensor_type;location;lat;lon;timestamp;P1;durP1;ratioP1;P2;durP2;ratioP2
16310;SDS011;8264;48.510;8.872;2023-05-14T00:00:18;11.97;;;9.97;;
16310;SDS011;8264;48.510;8.872;2023-05-14T00:02:46;12.50;;;10.47;;
16310;SDS011;8264;48.510;8.872;2023-05-14T00:05:16;11.60;;;10.50;;
16310;SDS011;8264;48.510;8.872;2023-05-14T00:07:42;12.97;;;10.97;;
16310;SDS011;8264;48.510;8.872;2023-05-14T00:10:09;12.17;;;10.97;;
16310;SDS011;8264;48.510;8.872;2023-05-14T00:12:35;12.07;;;10.87;;
16310;SDS011;8264;48.510;8.872;2023-05-14T00:15:02;12.03;;;10.80;;
16310;SDS011;8264;48.510;8.872;2023-05-14T00:17:29;11.50;;;10.20;;
16310;SDS011;8264;48.510;8.872;2023-05-14T00:19:57;12.67;;;11.40;;
16310;SDS011;8264;48.510;8.872;2023-05-14T00:22:24;11.60;;;10.40;;
16310;SDS011;8264;48.510;8.872;2023-05-14T00:24:50;12.40;;;10.87;;
16310;SDS011;8264;48.510;8.872;2023-05-14T00:27:17;11.80;;;10.60;;
16310;SDS011;8264;48.510;8.872;2023-05-14T00:29:43;11.17;;;10.07;;
16310;SDS011;8264;48.510;8.872;2023-05-14T00:32:10;11.67;;;9.87;;
16310;SDS011;8264;48.510;8.872;2023-05-14T00:34:37;12.63;;;10.77;;
16310;SDS011;8264;48.510;8.872;2023-05-14T00:37:05;10.87;;;9.43;;
16310;SDS011;8264;48.510;8.872;2023-05-14T00:39:31;10.53;;;9.43;;
16310;SDS011;8264;48.510;8.872;2023-05-14T00:41:58;11.87;;;9.70;;
16310;SDS011;8264;48.510;8.872;2023-05-14T00:44:25;11.73;;;10.33;;
16310;SDS011;8264;48.510;8.872;2023-05-14T00:46:51;11.13;;;9.97;;
16310;SDS011;8264;48.510;8.872;2023-05-14T00:49:18;10.90;;;9.57;;
16310;SDS011;8264;48.510;8.872;2023-05-14T00:51:45;9.80;;;8.80;;
16310;SDS011;8264;48.510;8.872;2023-05-14T00:54:13;11.10;;;10.00;;
16310;SDS011;8264;48.510;8.872;2023-05-14T00:56:40;9.90;;;8.90;;
16310;SDS011;8264;48.510;8.872;2023-05-14T00:59:07;11.87;;;9.53;;
16310;SDS011;8264;48.510;8.872;2023-05-14T01:01:34;12.37;;;9.40;;
16310;SDS011;8264;48.510;8.872;2023-05-14T01:04:00;11.03;;;9.40;;
16310;SDS011;8264;48.510;8.872;2023-05-14T01:06:37;10.30;;;9.20;;
16310;SDS011;8264;48.510;8.872;2023-05-14T01:09:28;11.57;;;10.37;;
16310;SDS011;8264;48.510;8.872;2023-05-14T01:12:07;10.80;;;9.77;;
16310;SDS011;8264;48.510;8.872;2023-05-14T01:14:41;10.80;;;9.70;;
16310;SDS011;8264;48.510;8.872;2023-05-14T01:17:10;10.27;;;9.27;;
16310;SDS011;8264;48.510;8.872;2023-05-14T01:19:38;12.27;;;10.03;;
16310;SDS011;8264;48.510;8.872;2023-05-14T01:22:07;10.93;;;9.80;;
16310;SDS011;8264;48.510;8.872;2023-05-14T01:24:33;11.17;;;10.07;;
16310;SDS011;8264;48.510;8.872;2023-05-14T01:27:02;10.83;;;9.73;;
16310;SDS011;8264;48.510;8.872;2023-05-14T01:29:31;12.73;;;10.13;;
16310;SDS011;8264;48.510;8.872;2023-05-14T01:31:59;10.53;;;9.53;;
16310;SDS011;8264;48.510;8.872;2023-05-14T01:34:27;10.90;;;9.80;;
16310;SDS011;8264;48.510;8.872;2023-05-14T01:36:53;10.63;;;9.53;;
16310;SDS011;8264;48.510;8.872;2023-05-14T01:39:22;11.30;;;10.07;;
16310;SDS011;8264;48.510;8.872;2023-05-14T01:41:50;10.70;;;9.60;;
16310;SDS011;8264;48.510;8.872;2023-05-14T01:44:17;10.80;;;9.80;;
16310;SDS011;8264;48.510;8.872;2023-05-14T01:46:44;9.57;;;8.67;;
16310;SDS011;8264;48.510;8.872;2023-05-14T01:49:10;10.00;;;9.20;;
16310;SDS011;8264;48.510;8.872;2023-05-14T01:51:37;10.80;;;9.77;;
16310;SDS011;8264;48.510;8.872;2023-05-14T01:54:03;11.30;;;10.20;;
16310;SDS011;8264;48.510;8.872;2023-05-14T01:56:31;10.73;;;9.47;;
16310;SDS011;8264;48.510;8.872;2023-05-14T01:58:58;10.73;;;9.47;;
16310;SDS011;8264;48.510;8.872;2023-05-14T02:01:24;10.70;;;9.57;;
16310;SDS011;8264;48.510;8.872;2023-05-14T02:03:51;10.70;;;9.70;;
16310;SDS011;8264;48.510;8.872;2023-05-14T02:06:17;11.60;;;10.40;;
16310;SDS011;8264;48.510;8.872;2023-05-14T02:08:44;11.63;;;10.10;;
16310;SDS011;8264;48.510;8.872;2023-05-14T02:11:10;11.40;;;10.07;;
16310;SDS011;8264;48.510;8.872;2023-05-14T02:13:38;11.97;;;10.17;;
16310;SDS011;8264;48.510;8.872;2023-05-14T02:16:05;11.67;;;10.50;;
16310;SDS011;8264;48.510;8.872;2023-05-14T02:18:32;12.33;;;11.03;;
16310;SDS011;8264;48.510;8.872;2023-05-14T02:20:58;12.63;;;10.67;;
16310;SDS011;8264;48.510;8.872;2023-05-14T02:23:25;11.57;;;10.40;;
16310;SDS011;8264;48.510;8.872;2023-05-14T02:25:51;11.83;;;10.77;;
16310;SDS011;8264;48.510;8.872;2023-05-14T02:28:17;11.90;;;10.70;;
16310;SDS011;8264;48.510;8.872;2023-05-14T02:30:45;12.67;;;11.47;;
16310;SDS011;8264;48.510;8.872;2023-05-14T02:33:12;12.20;;;10.90;;
16310;SDS011;8264;48.510;8.872;2023-05-14T02:35:38;13.37;;;11.10;;
16310;SDS011;8264;48.510;8.872;2023-05-14T02:38:05;11.83;;;10.73;;
16310;SDS011;8264;48.510;8.872;2023-05-14T02:40:31;12.40;;;10.50;;
16310;SDS011;8264;48.510;8.872;2023-05-14T02:42:58;12.50;;;11.17;;
16310;SDS011;8264;48.510;8.872;2023-05-14T02:45:24;12.40;;;11.13;;
16310;SDS011;8264;48.510;8.872;2023-05-14T02:47:52;12.50;;;11.30;;
16310;SDS011;8264;48.510;8.872;2023-05-14T02:50:19;15.17;;;11.40;;
16310;SDS011;8264;48.510;8.872;2023-05-14T02:52:45;11.33;;;10.33;;
16310;SDS011;8264;48.510;8.872;2023-05-14T02:55:12;12.10;;;10.93;;
16310;SDS011;8264;48.510;8.872;2023-05-14T02:57:38;12.40;;;11.10;;
16310;SDS011;8264;48.510;8.872;2023-05-14T03:00:05;12.67;;;11.03;;
16310;SDS011;8264;48.510;8.872;2023-05-14T03:02:33;12.40;;;11.10;;
16310;SDS011;8264;48.510;8.872;2023-05-14T03:05:01;12.63;;;11.27;;
16310;SDS011;8264;48.510;8.872;2023-05-14T03:07:28;13.80;;;11.27;;
16310;SDS011;8264;48.510;8.872;2023-05-14T03:09:54;12.80;;;11.60;;
16310;SDS011;8264;48.510;8.872;2023-05-14T03:12:21;11.93;;;10.83;;
16310;SDS011;8264;48.510;8.872;2023-05-14T03:14:48;12.10;;;10.90;;
16310;SDS011;8264;48.510;8.872;2023-05-14T03:17:14;12.10;;;10.83;;
16310;SDS011;8264;48.510;8.872;2023-05-14T03:19:41;12.30;;;11.10;;
16310;SDS011;8264;48.510;8.872;2023-05-14T03:22:08;12.30;;;11.10;;
16310;SDS011;8264;48.510;8.872;2023-05-14T03:24:36;12.30;;;11.10;;
16310;SDS011;8264;48.510;8.872;2023-05-14T03:27:04;13.07;;;11.70;;
16310;SDS011;8264;48.510;8.872;2023-05-14T03:29:30;13.27;;;11.97;;
16310;SDS011;8264;48.510;8.872;2023-05-14T03:31:57;14.90;;;12.23;;
16310;SDS011;8264;48.510;8.872;2023-05-14T03:34:23;13.47;;;12.07;;
16310;SDS011;8264;48.510;8.872;2023-05-14T03:36:50;13.57;;;11.80;;
16310;SDS011;8264;48.510;8.872;2023-05-14T03:39:18;13.07;;;11.77;;
16310;SDS011;8264;48.510;8.872;2023-05-14T03:41:45;12.43;;;11.27;;
16310;SDS011;8264;48.510;8.872;2023-05-14T03:44:11;12.60;;;11.40;;
16310;SDS011;8264;48.510;8.872;2023-05-14T03:46:38;13.50;;;12.10;;
16310;SDS011;8264;48.510;8.872;2023-05-14T03:49:05;14.50;;;11.67;;
16310;SDS011;8264;48.510;8.872;2023-05-14T03:51:31;13.47;;;11.87;;
16310;SDS011;8264;48.510;8.872;2023-05-14T03:53:58;12.93;;;11.53;;
16310;SDS011;8264;48.510;8.872;2023-05-14T03:56:26;12.63;;;11.33;;
16310;SDS011;8264;48.510;8.872;2023-05-14T03:58:52;12.73;;;11.43;;
16310;SDS011;8264;48.510;8.872;2023-05-14T04:01:19;12.23;;;11.10;;
16310;SDS011;8264;48.510;8.872;2023-05-14T04:03:46;12.63;;;11.30;;
16310;SDS011;8264;48.510;8.872;2023-05-14T04:06:12;14.03;;;11.73;;
16310;SDS011;8264;48.510;8.872;2023-05-14T04:08:39;13.70;;;12.40;;
16310;SDS011;8264;48.510;8.872;2023-05-14T04:11:05;13.70;;;12.30;;
16310;SDS011;8264;48.510;8.872;2023-05-14T04:13:33;14.77;;;13.27;;
16310;SDS011;8264;48.510;8.872;2023-05-14T04:16:00;14.57;;;13.10;;
16310;SDS011;8264;48.510;8.872;2023-05-14T04:18:26;15.47;;;13.80;;
16310;SDS011;8264;48.510;8.872;2023-05-14T04:20:53;13.33;;;12.03;;
16310;SDS011;8264;48.510;8.872;2023-05-14T04:23:20;14.73;;;12.60;;
16310;SDS011;8264;48.510;8.872;2023-05-14T04:25:46;13.90;;;12.40;;
16310;SDS011;8264;48.510;8.872;2023-05-14T04:28:13;14.33;;;12.93;;
16310;SDS011;8264;48.510;8.872;2023-05-14T04:30:41;15.10;;;13.43;;
16310;SDS011;8264;48.510;8.872;2023-05-14T04:33:07;15.00;;;13.60;;
16310;SDS011;8264;48.510;8.872;2023-05-14T04:35:34;14.03;;;12.40;;
16310;SDS011;8264;48.510;8.872;2023-05-14T04:38:01;14.27;;;12.83;;
16310;SDS011;8264;48.510;8.872;2023-05-14T04:40:27;14.70;;;13.10;;
16310;SDS011;8264;48.510;8.872;2023-05-14T04:42:55;14.77;;;13.30;;
16310;SDS011;8264;48.510;8.872;2023-05-14T04:45:21;14.17;;;12.73;;
16310;SDS011;8264;48.510;8.872;2023-05-14T04:47:49;14.73;;;13.33;;
16310;SDS011;8264;48.510;8.872;2023-05-14T04:50:16;15.43;;;13.77;;
16310;SDS011;8264;48.510;8.872;2023-05-14T04:52:43;14.60;;;13.20;;
16310;SDS011;8264;48.510;8.872;2023-05-14T04:55:09;13.93;;;12.43;;
16310;SDS011;8264;48.510;8.872;2023-05-14T04:57:36;14.47;;;13.07;;
16310;SDS011;8264;48.510;8.872;2023-05-14T05:00:02;14.07;;;12.67;;
16310;SDS011;8264;48.510;8.872;2023-05-14T05:02:34;14.57;;;12.93;;
16310;SDS011;8264;48.510;8.872;2023-05-14T05:05:02;14.67;;;12.83;;
16310;SDS011;8264;48.510;8.872;2023-05-14T05:07:29;14.77;;;13.40;;
16310;SDS011;8264;48.510;8.872;2023-05-14T05:09:55;16.03;;;14.50;;
16310;SDS011;8264;48.510;8.872;2023-05-14T05:12:22;16.03;;;14.43;;
16310;SDS011;8264;48.510;8.872;2023-05-14T05:14:48;14.83;;;13.43;;
16310;SDS011;8264;48.510;8.872;2023-05-14T05:17:15;14.87;;;13.33;;
16310;SDS011;8264;48.510;8.872;2023-05-14T05:19:41;14.50;;;13.00;;
16310;SDS011;8264;48.510;8.872;2023-05-14T05:22:09;14.70;;;12.53;;
16310;SDS011;8264;48.510;8.872;2023-05-14T05:24:35;14.97;;;13.37;;
16310;SDS011;8264;48.510;8.872;2023-05-14T05:27:02;14.30;;;12.43;;
16310;SDS011;8264;48.510;8.872;2023-05-14T05:29:29;15.50;;;14.00;;
16310;SDS011;8264;48.510;8.872;2023-05-14T05:31:56;13.37;;;12.17;;
16310;SDS011;8264;48.510;8.872;2023-05-14T05:34:23;13.97;;;12.67;;
16310;SDS011;8264;48.510;8.872;2023-05-14T05:36:49;13.87;;;12.47;;
16310;SDS011;8264;48.510;8.872;2023-05-14T05:39:17;13.13;;;11.73;;
16310;SDS011;8264;48.510;8.872;2023-05-14T05:41:43;13.70;;;12.33;;
16310;SDS011;8264;48.510;8.872;2023-05-14T05:44:10;13.87;;;12.50;;
16310;SDS011;8264;48.510;8.872;2023-05-14T05:46:36;13.73;;;12.43;;
16310;SDS011;8264;48.510;8.872;2023-05-14T05:49:03;15.13;;;13.23;;
16310;SDS011;8264;48.510;8.872;2023-05-14T05:51:30;13.50;;;12.10;;
16310;SDS011;8264;48.510;8.872;2023-05-14T05:53:57;13.33;;;11.57;;
16310;SDS011;8264;48.510;8.872;2023-05-14T05:56:25;13.60;;;12.20;;
16310;SDS011;8264;48.510;8.872;2023-05-14T05:58:51;13.63;;;12.13;;
16310;SDS011;8264;48.510;8.872;2023-05-14T06:01:17;12.97;;;11.60;;
16310;SDS011;8264;48.510;8.872;2023-05-14T06:03:44;12.17;;;10.97;;
16310;SDS011;8264;48.510;8.872;2023-05-14T06:06:11;12.57;;;11.37;;
16310;SDS011;8264;48.510;8.872;2023-05-14T06:08:37;13.30;;;11.17;;
16310;SDS011;8264;48.510;8.872;2023-05-14T06:11:05;13.60;;;12.30;;
16310;SDS011;8264;48.510;8.872;2023-05-14T06:13:33;13.20;;;11.97;;
16310;SDS011;8264;48.510;8.872;2023-05-14T06:16:00;12.87;;;11.57;;
16310;SDS011;8264;48.510;8.872;2023-05-14T06:18:26;13.10;;;11.80;;
16310;SDS011;8264;48.510;8.872;2023-05-14T06:20:53;12.93;;;11.73;;
16310;SDS011;8264;48.510;8.872;2023-05-14T06:23:20;13.70;;;11.50;;
16310;SDS011;8264;48.510;8.872;2023-05-14T06:25:48;12.20;;;11.00;;
16310;SDS011;8264;48.510;8.872;2023-05-14T06:28:14;13.57;;;10.87;;
16310;SDS011;8264;48.510;8.872;2023-05-14T06:30:42;11.73;;;10.53;;
16310;SDS011;8264;48.510;8.872;2023-05-14T06:33:09;11.63;;;10.53;;
16310;SDS011;8264;48.510;8.872;2023-05-14T06:35:37;11.40;;;10.37;;
16310;SDS011;8264;48.510;8.872;2023-05-14T06:38:03;11.87;;;10.67;;
16310;SDS011;8264;48.510;8.872;2023-05-14T06:40:30;11.73;;;10.63;;
16310;SDS011;8264;48.510;8.872;2023-05-14T06:42:57;12.40;;;11.20;;
16310;SDS011;8264;48.510;8.872;2023-05-14T06:45:23;12.97;;;10.83;;
16310;SDS011;8264;48.510;8.872;2023-05-14T06:47:51;12.47;;;11.17;;
16310;SDS011;8264;48.510;8.872;2023-05-14T06:50:17;12.77;;;11.57;;
16310;SDS011;8264;48.510;8.872;2023-05-14T06:52:44;13.33;;;11.20;;
16310;SDS011;8264;48.510;8.872;2023-05-14T06:55:11;12.70;;;11.40;;
16310;SDS011;8264;48.510;8.872;2023-05-14T06:57:37;12.00;;;10.90;;
16310;SDS011;8264;48.510;8.872;2023-05-14T07:00:04;12.07;;;10.97;;
16310;SDS011;8264;48.510;8.872;2023-05-14T07:02:32;13.13;;;11.77;;
16310;SDS011;8264;48.510;8.872;2023-05-14T07:05:00;12.33;;;11.13;;
16310;SDS011;8264;48.510;8.872;2023-05-14T07:07:27;12.77;;;11.47;;
16310;SDS011;8264;48.510;8.872;2023-05-14T07:09:53;12.97;;;11.63;;
16310;SDS011;8264;48.510;8.872;2023-05-14T07:12:20;11.90;;;10.80;;
16310;SDS011;8264;48.510;8.872;2023-05-14T07:14:46;12.90;;;10.90;;
16310;SDS011;8264;48.510;8.872;2023-05-14T07:17:13;12.43;;;11.27;;
16310;SDS011;8264;48.510;8.872;2023-05-14T07:19:40;11.97;;;10.80;;
16310;SDS011;8264;48.510;8.872;2023-05-14T07:22:08;14.37;;;11.83;;
16310;SDS011;8264;48.510;8.872;2023-05-14T07:24:34;12.40;;;11.23;;
16310;SDS011;8264;48.510;8.872;2023-05-14T07:27:01;13.53;;;12.23;;
16310;SDS011;8264;48.510;8.872;2023-05-14T07:29:27;13.27;;;11.97;;
16310;SDS011;8264;48.510;8.872;2023-05-14T07:31:54;14.30;;;12.80;;
16310;SDS011;8264;48.510;8.872;2023-05-14T07:34:21;14.77;;;13.27;;
16310;SDS011;8264;48.510;8.872;2023-05-14T07:36:48;14.83;;;13.43;;
16310;SDS011;8264;48.510;8.872;2023-05-14T07:39:15;14.57;;;13.07;;
16310;SDS011;8264;48.510;8.872;2023-05-14T07:41:42;16.57;;;14.60;;
16310;SDS011;8264;48.510;8.872;2023-05-14T07:44:08;16.07;;;14.47;;
16310;SDS011;8264;48.510;8.872;2023-05-14T07:46:35;16.00;;;14.40;;
16310;SDS011;8264;48.510;8.872;2023-05-14T07:49:02;15.67;;;14.17;;
16310;SDS011;8264;48.510;8.872;2023-05-14T07:51:28;15.80;;;12.77;;
16310;SDS011;8264;48.510;8.872;2023-05-14T07:53:56;14.67;;;13.27;;
16310;SDS011;8264;48.510;8.872;2023-05-14T07:56:24;15.50;;;13.90;;
16310;SDS011;8264;48.510;8.872;2023-05-14T07:58:51;16.10;;;14.50;;
16310;SDS011;8264;48.510;8.872;2023-05-14T08:01:17;17.53;;;13.90;;
16310;SDS011;8264;48.510;8.872;2023-05-14T08:03:44;16.10;;;14.40;;
16310;SDS011;8264;48.510;8.872;2023-05-14T08:06:11;15.33;;;13.87;;
16310;SDS011;8264;48.510;8.872;2023-05-14T08:08:38;15.20;;;13.17;;
16310;SDS011;8264;48.510;8.872;2023-05-14T08:11:05;14.83;;;13.33;;
16310;SDS011;8264;48.510;8.872;2023-05-14T08:13:33;14.00;;;12.60;;
16310;SDS011;8264;48.510;8.872;2023-05-14T08:15:59;14.93;;;13.43;;
16310;SDS011;8264;48.510;8.872;2023-05-14T08:18:26;16.30;;;14.70;;
16310;SDS011;8264;48.510;8.872;2023-05-14T08:20:53;25.70;;;20.57;;
16310;SDS011;8264;48.510;8.872;2023-05-14T08:23:20;25.23;;;18.47;;
16310;SDS011;8264;48.510;8.872;2023-05-14T08:25:46;15.07;;;13.33;;
16310;SDS011;8264;48.510;8.872;2023-05-14T08:28:13;18.90;;;15.17;;
16310;SDS011;8264;48.510;8.872;2023-05-14T08:30:40;15.37;;;13.77;;
16310;SDS011;8264;48.510;8.872;2023-05-14T08:33:07;15.10;;;13.60;;
16310;SDS011;8264;48.510;8.872;2023-05-14T08:35:33;13.90;;;12.60;;
16310;SDS011;8264;48.510;8.872;2023-05-14T08:38:00;13.20;;;12.00;;
16310;SDS011;8264;48.510;8.872;2023-05-14T08:40:26;15.20;;;13.63;;
16310;SDS011;8264;48.510;8.872;2023-05-14T08:42:53;14.27;;;12.77;;
16310;SDS011;8264;48.510;8.872;2023-05-14T08:45:23;13.47;;;12.07;;
16310;SDS011;8264;48.510;8.872;2023-05-14T08:47:55;13.57;;;12.13;;
16310;SDS011;8264;48.510;8.872;2023-05-14T08:50:23;14.67;;;13.27;;
16310;SDS011;8264;48.510;8.872;2023-05-14T08:52:50;14.97;;;12.93;;
16310;SDS011;8264;48.510;8.872;2023-05-14T08:55:18;14.03;;;12.73;;
16310;SDS011;8264;48.510;8.872;2023-05-14T08:57:45;14.30;;;12.83;;
16310;SDS011;8264;48.510;8.872;2023-05-14T09:00:12;13.63;;;12.33;;
16310;SDS011;8264;48.510;8.872;2023-05-14T09:02:39;13.70;;;12.30;;
16310;SDS011;8264;48.510;8.872;2023-05-14T09:05:08;13.17;;;11.90;;
16310;SDS011;8264;48.510;8.872;2023-05-14T09:07:35;15.13;;;13.53;;
16310;SDS011;8264;48.510;8.872;2023-05-14T09:10:01;12.57;;;11.37;;
16310;SDS011;8264;48.510;8.872;2023-05-14T09:12:28;14.17;;;12.87;;
16310;SDS011;8264;48.510;8.872;2023-05-14T09:14:55;13.30;;;11.87;;
16310;SDS011;8264;48.510;8.872;2023-05-14T09:17:21;13.07;;;11.70;;
16310;SDS011;8264;48.510;8.872;2023-05-14T09:19:50;13.77;;;12.47;;
16310;SDS011;8264;48.510;8.872;2023-05-14T09:22:19;13.23;;;11.93;;
16310;SDS011;8264;48.510;8.872;2023-05-14T09:24:46;13.33;;;12.07;;
16310;SDS011;8264;48.510;8.872;2023-05-14T09:27:28;13.03;;;11.83;;
16310;SDS011;8264;48.510;8.872;2023-05-14T09:29:54;13.00;;;11.70;;
16310;SDS011;8264;48.510;8.872;2023-05-14T09:32:21;12.77;;;11.40;;
16310;SDS011;8264;48.510;8.872;2023-05-14T09:34:47;13.10;;;11.77;;
16310;SDS011;8264;48.510;8.872;2023-05-14T09:37:14;13.60;;;12.13;;
16310;SDS011;8264;48.510;8.872;2023-05-14T09:39:42;12.80;;;11.60;;
16310;SDS011;8264;48.510;8.872;2023-05-14T09:42:08;12.13;;;10.93;;
16310;SDS011;8264;48.510;8.872;2023-05-14T09:44:34;12.40;;;11.07;;
16310;SDS011;8264;48.510;8.872;2023-05-14T09:47:02;11.67;;;10.57;;
16310;SDS011;8264;48.510;8.872;2023-05-14T09:49:28;10.83;;;9.73;;
16310;SDS011;8264;48.510;8.872;2023-05-14T09:51:55;11.20;;;9.97;;
16310;SDS011;8264;48.510;8.872;2023-05-14T09:54:22;11.10;;;10.10;;
16310;SDS011;8264;48.510;8.872;2023-05-14T09:56:50;11.50;;;10.40;;
16310;SDS011;8264;48.510;8.872;2023-05-14T09:59:17;12.00;;;10.90;;
16310;SDS011;8264;48.510;8.872;2023-05-14T10:01:43;10.90;;;9.80;;
16310;SDS011;8264;48.510;8.872;2023-05-14T10:04:10;11.27;;;10.17;;
16310;SDS011;8264;48.510;8.872;2023-05-14T10:06:38;11.67;;;10.47;;
16310;SDS011;8264;48.510;8.872;2023-05-14T10:09:07;10.60;;;9.60;;
16310;SDS011;8264;48.510;8.872;2023-05-14T10:11:36;10.40;;;9.40;;
16310;SDS011;8264;48.510;8.872;2023-05-14T10:14:06;13.57;;;9.73;;
16310;SDS011;8264;48.510;8.872;2023-05-14T10:16:34;9.57;;;8.67;;
16310;SDS011;8264;48.510;8.872;2023-05-14T10:19:04;11.23;;;10.13;;
16310;SDS011;8264;48.510;8.872;2023-05-14T10:21:32;9.23;;;8.43;;
16310;SDS011;8264;48.510;8.872;2023-05-14T10:24:00;10.00;;;9.03;;
16310;SDS011;8264;48.510;8.872;2023-05-14T10:26:28;9.67;;;8.63;;
16310;SDS011;8264;48.510;8.872;2023-05-14T10:28:55;9.83;;;8.93;;
16310;SDS011;8264;48.510;8.872;2023-05-14T10:31:24;9.53;;;8.63;;
16310;SDS011;8264;48.510;8.872;2023-05-14T10:36:58;9.30;;;8.30;;
16310;SDS011;8264;48.510;8.872;2023-05-14T10:39:45;9.43;;;8.47;;
16310;SDS011;8264;48.510;8.872;2023-05-14T10:42:13;10.20;;;8.03;;
16310;SDS011;8264;48.510;8.872;2023-05-14T10:44:45;9.00;;;8.20;;
16310;SDS011;8264;48.510;8.872;2023-05-14T10:47:15;9.23;;;8.43;;
16310;SDS011;8264;48.510;8.872;2023-05-14T10:49:42;8.50;;;7.80;;
16310;SDS011;8264;48.510;8.872;2023-05-14T10:52:09;9.00;;;8.20;;
16310;SDS011;8264;48.510;8.872;2023-05-14T10:54:36;8.83;;;7.20;;
16310;SDS011;8264;48.510;8.872;2023-05-14T10:57:03;7.23;;;6.53;;
16310;SDS011;8264;48.510;8.872;2023-05-14T10:59:29;7.23;;;6.53;;
16310;SDS011;8264;48.510;8.872;2023-05-14T11:01:58;6.97;;;6.37;;
16310;SDS011;8264;48.510;8.872;2023-05-14T11:04:27;6.20;;;5.60;;
16310;SDS011;8264;48.510;8.872;2023-05-14T11:06:54;6.60;;;6.00;;
16310;SDS011;8264;48.510;8.872;2023-05-14T11:09:20;6.93;;;6.23;;
16310;SDS011;8264;48.510;8.872;2023-05-14T11:11:47;7.13;;;6.40;;
16310;SDS011;8264;48.510;8.872;2023-05-14T11:14:14;7.60;;;6.90;;
16310;SDS011;8264;48.510;8.872;2023-05-14T11:16:40;7.83;;;7.07;;
16310;SDS011;8264;48.510;8.872;2023-05-14T11:19:07;7.60;;;6.90;;
16310;SDS011;8264;48.510;8.872;2023-05-14T11:21:35;7.03;;;6.20;;
16310;SDS011;8264;48.510;8.872;2023-05-14T11:24:02;6.13;;;5.57;;
16310;SDS011;8264;48.510;8.872;2023-05-14T11:26:30;6.50;;;4.33;;
16310;SDS011;8264;48.510;8.872;2023-05-14T11:28:57;4.73;;;4.23;;
16310;SDS011;8264;48.510;8.872;2023-05-14T11:31:24;4.33;;;3.93;;
16310;SDS011;8264;48.510;8.872;2023-05-14T11:33:50;6.00;;;4.40;;
16310;SDS011;8264;48.510;8.872;2023-05-14T11:36:18;4.93;;;4.43;;
16310;SDS011;8264;48.510;8.872;2023-05-14T11:38:46;5.87;;;5.13;;
16310;SDS011;8264;48.510;8.872;2023-05-14T11:41:15;4.90;;;4.40;;
16310;SDS011;8264;48.510;8.872;2023-05-14T11:43:42;3.47;;;3.17;;
16310;SDS011;8264;48.510;8.872;2023-05-14T11:46:14;4.53;;;4.13;;
16310;SDS011;8264;48.510;8.872;2023-05-14T11:48:41;3.40;;;3.10;;
16310;SDS011;8264;48.510;8.872;2023-05-14T11:51:08;4.43;;;4.00;;
16310;SDS011;8264;48.510;8.872;2023-05-14T11:53:35;4.93;;;3.43;;
16310;SDS011;8264;48.510;8.872;2023-05-14T11:56:03;4.97;;;4.07;;
16310;SDS011;8264;48.510;8.872;2023-05-14T11:58:31;6.60;;;3.80;;
16310;SDS011;8264;48.510;8.872;2023-05-14T12:00:57;4.97;;;4.40;;
16310;SDS011;8264;48.510;8.872;2023-05-14T12:03:24;5.43;;;4.50;;
16310;SDS011;8264;48.510;8.872;2023-05-14T12:05:54;5.87;;;4.63;;
16310;SDS011;8264;48.510;8.872;2023-05-14T12:08:21;4.80;;;4.40;;
16310;SDS011;8264;48.510;8.872;2023-05-14T12:10:48;5.30;;;4.80;;
16310;SDS011;8264;48.510;8.872;2023-05-14T12:16:01;5.03;;;4.53;;
16310;SDS011;8264;48.510;8.872;2023-05-14T12:18:29;6.47;;;5.33;;
16310;SDS011;8264;48.510;8.872;2023-05-14T12:21:00;5.63;;;5.13;;
16310;SDS011;8264;48.510;8.872;2023-05-14T12:23:28;5.37;;;4.87;;
16310;SDS011;8264;48.510;8.872;2023-05-14T12:25:59;4.60;;;4.20;;
16310;SDS011;8264;48.510;8.872;2023-05-14T12:28:27;4.37;;;4.00;;
16310;SDS011;8264;48.510;8.872;2023-05-14T12:30:56;4.47;;;4.07;;
16310;SDS011;8264;48.510;8.872;2023-05-14T12:33:23;4.50;;;4.10;;
16310;SDS011;8264;48.510;8.872;2023-05-14T12:35:50;4.40;;;4.00;;
16310;SDS011;8264;48.510;8.872;2023-05-14T12:38:17;5.83;;;4.20;;
16310;SDS011;8264;48.510;8.872;2023-05-14T12:40:44;6.07;;;4.30;;
16310;SDS011;8264;48.510;8.872;2023-05-14T12:43:16;4.37;;;3.90;;
16310;SDS011;8264;48.510;8.872;2023-05-14T12:45:46;5.50;;;4.43;;
16310;SDS011;8264;48.510;8.872;2023-05-14T12:48:17;4.73;;;4.33;;
16310;SDS011;8264;48.510;8.872;2023-05-14T12:50:44;4.93;;;4.53;;
16310;SDS011;8264;48.510;8.872;2023-05-14T12:53:12;5.93;;;4.53;;
16310;SDS011;8264;48.510;8.872;2023-05-14T12:55:40;4.63;;;4.23;;
16310;SDS011;8264;48.510;8.872;2023-05-14T12:58:06;5.67;;;4.53;;
16310;SDS011;8264;48.510;8.872;2023-05-14T13:00:33;5.40;;;4.90;;
16310;SDS011;8264;48.510;8.872;2023-05-14T13:02:59;6.10;;;5.50;;
16310;SDS011;8264;48.510;8.872;2023-05-14T13:05:27;7.23;;;4.73;;
16310;SDS011;8264;48.510;8.872;2023-05-14T13:07:57;4.77;;;3.57;;
16310;SDS011;8264;48.510;8.872;2023-05-14T13:10:24;3.97;;;3.10;;
16310;SDS011;8264;48.510;8.872;2023-05-14T13:12:50;3.60;;;2.80;;
16310;SDS011;8264;48.510;8.872;2023-05-14T13:15:17;6.27;;;3.80;;
16310;SDS011;8264;48.510;8.872;2023-05-14T13:17:43;4.97;;;3.03;;
16310;SDS011;8264;48.510;8.872;2023-05-14T13:20:10;4.47;;;3.30;;
16310;SDS011;8264;48.510;8.872;2023-05-14T13:22:38;5.53;;;3.13;;
16310;SDS011;8264;48.510;8.872;2023-05-14T13:25:05;6.27;;;3.00;;
16310;SDS011;8264;48.510;8.872;2023-05-14T13:27:32;5.57;;;3.80;;
16310;SDS011;8264;48.510;8.872;2023-05-14T13:30:00;5.27;;;3.87;;
16310;SDS011;8264;48.510;8.872;2023-05-14T13:32:26;5.07;;;4.00;;
16310;SDS011;8264;48.510;8.872;2023-05-14T13:34:53;5.63;;;3.17;;
16310;SDS011;8264;48.510;8.872;2023-05-14T13:37:19;7.53;;;4.17;;
16310;SDS011;8264;48.510;8.872;2023-05-14T13:39:47;7.47;;;3.83;;
16310;SDS011;8264;48.510;8.872;2023-05-14T13:42:14;5.67;;;4.40;;
16310;SDS011;8264;48.510;8.872;2023-05-14T13:44:40;5.30;;;4.70;;
16310;SDS011;8264;48.510;8.872;2023-05-14T13:47:06;5.67;;;4.97;;
16310;SDS011;8264;48.510;8.872;2023-05-14T13:49:33;6.83;;;5.57;;
16310;SDS011;8264;48.510;8.872;2023-05-14T13:51:59;6.50;;;5.50;;
16310;SDS011;8264;48.510;8.872;2023-05-14T13:54:26;6.17;;;5.20;;
16310;SDS011;8264;48.510;8.872;2023-05-14T13:56:54;7.90;;;6.50;;
16310;SDS011;8264;48.510;8.872;2023-05-14T13:59:20;8.03;;;6.53;;
16310;SDS011;8264;48.510;8.872;2023-05-14T14:01:47;7.03;;;5.93;;
16310;SDS011;8264;48.510;8.872;2023-05-14T14:04:15;10.17;;;7.07;;
16310;SDS011;8264;48.510;8.872;2023-05-14T14:06:42;7.73;;;6.93;;
16310;SDS011;8264;48.510;8.872;2023-05-14T14:09:09;7.57;;;6.83;;
16310;SDS011;8264;48.510;8.872;2023-05-14T14:11:37;6.47;;;5.87;;
16310;SDS011;8264;48.510;8.872;2023-05-14T14:14:05;4.90;;;4.10;;
16310;SDS011;8264;48.510;8.872;2023-05-14T14:16:31;5.00;;;3.77;;
16310;SDS011;8264;48.510;8.872;2023-05-14T14:18:58;5.07;;;3.10;;
16310;SDS011;8264;48.510;8.872;2023-05-14T14:21:24;4.57;;;2.63;;
16310;SDS011;8264;48.510;8.872;2023-05-14T14:23:51;4.07;;;2.90;;
16310;SDS011;8264;48.510;8.872;2023-05-14T14:26:17;3.73;;;3.33;;
16310;SDS011;8264;48.510;8.872;2023-05-14T14:28:45;5.63;;;4.60;;
16310;SDS011;8264;48.510;8.872;2023-05-14T14:31:12;5.10;;;4.10;;
16310;SDS011;8264;48.510;8.872;2023-05-14T14:33:39;7.20;;;4.23;;
16310;SDS011;8264;48.510;8.872;2023-05-14T14:36:07;6.60;;;4.37;;
16310;SDS011;8264;48.510;8.872;2023-05-14T14:38:33;8.70;;;4.97;;
16310;SDS011;8264;48.510;8.872;2023-05-14T14:41:00;6.17;;;4.77;;
16310;SDS011;8264;48.510;8.872;2023-05-14T14:43:27;7.30;;;4.33;;
16310;SDS011;8264;48.510;8.872;2023-05-14T14:45:53;4.90;;;4.00;;
16310;SDS011;8264;48.510;8.872;2023-05-14T14:48:28;4.83;;;4.37;;